Andalusia, Illinois
Current Conditions -  °F | °C
As of 3:52 AM on Wednesday 26 Nov 2014 (Local Time) from KMLI Reporting Station
Clear Clear  
Wind Chill:   Ceiling: Unl
Heat Index: 17°   Visibility: 7mi
Dew Point: 13°   Wind: 7mph
Humidity: 84%   Direction: 90°E
Pressure: 30.08"   Gusts: NA
Location:  41.44°N, 90.72°W
Report Text: KMLI 260952Z AUTO 09006KT 7SM CLR M08/M11 A3008 RMK AO2 SLP196 T10831106 $
Loading
Personal Weather Stations






























Interactive Weather Map New forecast layout! Learn more

10-Day Weather Forecast

Advertisements
Track Severe Weather on mobile